Time;durP1;ratioP1;P1;durP2;ratioP2;P2;SDS_P1;SDS_P2;PMS_P1;PMS_P2;Temp;Humidity;BMP_temperature;BMP_pressure;BME280_temperature;BME280_humidity;BME280_pressure;Samples;Min_cycle;Max_cycle;Signal;HPM_P1;HPM_P2
2023/08/19 00:01:12;;;;;;;16.73;13.85;;;;;;;;;;4984397;28;99453;-77
2023/08/19 00:03:39;;;;;;;18.88;14.65;;;;;;;;;;4987713;28;98574;-77
2023/08/19 00:06:06;;;;;;;17.55;13.80;;;;;;;;;;4991069;28;99327;-78
2023/08/19 00:08:33;;;;;;;15.77;13.77;;;;;;;;;;5007752;28;99050;-78
2023/08/19 00:11:00;;;;;;;15.80;14.30;;;;;;;;;;4994787;28;100666;-78
2023/08/19 00:13:26;;;;;;;18.75;16.02;;;;;;;;;;4984807;28;99230;-79
2023/08/19 00:15:52;;;;;;;18.98;16.08;;;;;;;;;;4983337;28;101082;-78
2023/08/19 00:18:19;;;;;;;15.93;14.25;;;;;;;;;;4996841;28;98519;-78
2023/08/19 00:20:46;;;;;;;16.60;14.52;;;;;;;;;;4996164;28;99242;-78
2023/08/19 00:23:14;;;;;;;19.38;15.18;;;;;;;;;;4999062;28;98639;-79
2023/08/19 00:25:41;;;;;;;21.67;15.63;;;;;;;;;;5001610;28;100369;-81
2023/08/19 00:28:07;;;;;;;22.75;15.55;;;;;;;;;;4998739;28;100805;-77
2023/08/19 00:30:34;;;;;;;15.40;13.82;;;;;;;;;;4990639;28;98506;-77
2023/08/19 00:33:00;;;;;;;16.02;14.25;;;;;;;;;;4994188;28;99220;-77
2023/08/19 00:35:28;;;;;;;19.80;14.18;;;;;;;;;;4998543;28;99584;-77
2023/08/19 00:37:54;;;;;;;14.32;12.73;;;;;;;;;;4992570;28;98601;-77
2023/08/19 00:40:20;;;;;;;17.35;14.02;;;;;;;;;;4997308;28;99339;-76
2023/08/19 00:42:47;;;;;;;19.45;14.18;;;;;;;;;;5000012;28;99502;-77
2023/08/19 00:45:13;;;;;;;18.73;14.45;;;;;;;;;;4994914;28;99194;-77
2023/08/19 00:47:42;;;;;;;22.00;15.63;;;;;;;;;;4994121;28;99970;-78
2023/08/19 00:50:09;;;;;;;17.27;13.75;;;;;;;;;;4991646;28;99035;-77
2023/08/19 00:52:37;;;;;;;16.73;14.20;;;;;;;;;;4992889;28;100679;-78
2023/08/19 00:55:04;;;;;;;17.67;13.93;;;;;;;;;;4997874;28;99403;-79
2023/08/19 00:57:32;;;;;;;18.10;15.52;;;;;;;;;;5002529;28;98160;-79
2023/08/19 01:00:02;;;;;;;15.70;14.10;;;;;;;;;;5001613;28;100240;-78
2023/08/19 01:02:29;;;;;;;19.55;14.23;;;;;;;;;;4998290;28;103443;-78
2023/08/19 01:04:55;;;;;;;16.05;13.50;;;;;;;;;;4999689;28;99358;-77
2023/08/19 01:07:28;;;;;;;15.43;13.82;;;;;;;;;;4989926;28;101118;-78
2023/08/19 01:09:58;;;;;;;14.50;12.55;;;;;;;;;;4989611;28;98611;-78
2023/08/19 01:12:38;;;;;;;14.60;12.75;;;;;;;;;;4990033;28;99206;-78
2023/08/19 01:15:06;;;;;;;15.95;13.85;;;;;;;;;;4989343;28;99970;-78
2023/08/19 01:17:34;;;;;;;;;;;;;;;;;;4988654;28;98640;-76
2023/08/19 01:20:03;;;;;;;16.65;12.63;;;;;;;;;;4996842;28;127375;-79
2023/08/19 01:22:49;;;;;;;13.68;11.45;;;;;;;;;;4996307;28;99816;-77
2023/08/19 01:25:18;;;;;;;18.27;12.65;;;;;;;;;;4992773;28;98651;-78
2023/08/19 01:27:44;;;;;;;13.77;11.75;;;;;;;;;;5005432;28;98957;-77
2023/08/19 01:30:11;;;;;;;15.20;12.07;;;;;;;;;;4998961;28;99301;-79
2023/08/19 01:32:41;;;;;;;14.20;12.57;;;;;;;;;;5003867;28;101349;-78
2023/08/19 01:35:09;;;;;;;18.90;14.60;;;;;;;;;;5000470;28;100378;-79
2023/08/19 01:37:35;;;;;;;16.40;13.07;;;;;;;;;;5000265;28;98423;-76
2023/08/19 01:40:03;;;;;;;17.52;13.43;;;;;;;;;;4987948;28;100712;-77
2023/08/19 01:42:31;;;;;;;17.27;14.07;;;;;;;;;;4998333;28;100815;-76
2023/08/19 01:44:58;;;;;;;15.40;13.40;;;;;;;;;;4996597;28;98655;-76
2023/08/19 01:47:25;;;;;;;17.65;14.38;;;;;;;;;;5010836;28;100468;-78
2023/08/19 01:49:51;;;;;;;18.17;15.82;;;;;;;;;;4994385;28;98553;-75
2023/08/19 01:52:19;;;;;;;18.27;15.50;;;;;;;;;;4992183;28;100688;-77
2023/08/19 01:54:45;;;;;;;22.35;17.50;;;;;;;;;;4993844;28;101247;-78
2023/08/19 01:57:11;;;;;;;22.80;18.38;;;;;;;;;;4991934;28;98730;-78
2023/08/19 01:59:38;;;;;;;23.35;18.60;;;;;;;;;;5001889;28;100678;-78
2023/08/19 02:02:06;;;;;;;30.25;19.70;;;;;;;;;;4993322;28;100522;-78
2023/08/19 02:04:33;;;;;;;22.63;18.98;;;;;;;;;;4994657;28;98553;-78
2023/08/19 02:06:59;;;;;;;22.50;19.10;;;;;;;;;;4998401;28;99524;-78
2023/08/19 02:09:30;;;;;;;28.52;20.05;;;;;;;;;;4996010;28;99123;-77
2023/08/19 02:11:57;;;;;;;22.58;19.88;;;;;;;;;;4988529;28;99540;-84
2023/08/19 02:14:24;;;;;;;21.83;18.73;;;;;;;;;;4991526;28;99867;-85
2023/08/19 02:16:50;;;;;;;30.20;21.90;;;;;;;;;;4994247;28;99228;-84
2023/08/19 02:19:17;;;;;;;26.90;19.73;;;;;;;;;;4992085;28;99334;-86
2023/08/19 02:21:43;;;;;;;29.75;21.40;;;;;;;;;;4991875;28;100518;-86
2023/08/19 02:24:10;;;;;;;26.27;21.88;;;;;;;;;;4987374;28;98567;-85
2023/08/19 02:26:36;;;;;;;36.55;23.13;;;;;;;;;;4992636;28;100440;-86
2023/08/19 02:29:03;;;;;;;32.28;22.13;;;;;;;;;;4993395;28;99332;-86
2023/08/19 02:31:29;;;;;;;31.98;21.63;;;;;;;;;;5003190;28;98592;-86
2023/08/19 02:33:56;;;;;;;32.80;23.38;;;;;;;;;;4990203;28;100522;-86
2023/08/19 02:36:22;;;;;;;26.15;17.92;;;;;;;;;;4992918;28;98018;-86
2023/08/19 02:38:49;;;;;;;28.40;22.48;;;;;;;;;;4993133;28;99980;-86
2023/08/19 02:41:15;;;;;;;38.88;23.48;;;;;;;;;;4999160;28;99461;-86
2023/08/19 02:43:41;;;;;;;29.50;23.02;;;;;;;;;;5005242;28;100517;-81
2023/08/19 02:46:08;;;;;;;27.83;22.05;;;;;;;;;;4991405;28;99984;-83
2023/08/19 02:48:34;;;;;;;29.63;23.52;;;;;;;;;;4991976;28;99507;-83
2023/08/19 02:51:01;;;;;;;29.20;21.42;;;;;;;;;;4990218;28;98607;-82
2023/08/19 02:53:28;;;;;;;27.73;23.70;;;;;;;;;;4991980;28;99182;-82
2023/08/19 02:55:55;;;;;;;30.00;23.73;;;;;;;;;;5000527;28;100657;-83
2023/08/19 02:58:21;;;;;;;26.48;20.17;;;;;;;;;;4991009;28;98901;-78
2023/08/19 03:00:48;;;;;;;28.33;22.02;;;;;;;;;;4987670;28;99946;-84
2023/08/19 03:03:14;;;;;;;27.00;20.00;;;;;;;;;;4987495;28;99170;-84
2023/08/19 03:05:41;;;;;;;29.92;22.65;;;;;;;;;;4984029;28;99025;-85
2023/08/19 03:08:09;;;;;;;35.63;22.52;;;;;;;;;;4984344;28;100203;-84
2023/08/19 03:10:36;;;;;;;33.47;23.08;;;;;;;;;;4985222;28;98535;-84
2023/08/19 03:13:02;;;;;;;33.13;23.25;;;;;;;;;;4988035;28;99202;-84
2023/08/19 03:15:29;;;;;;;32.47;23.55;;;;;;;;;;4984254;28;99732;-84
2023/08/19 03:17:56;;;;;;;33.88;22.20;;;;;;;;;;4990305;28;99258;-84
2023/08/19 03:20:22;;;;;;;29.58;21.38;;;;;;;;;;4991118;28;99541;-84
2023/08/19 03:22:49;;;;;;;30.38;21.75;;;;;;;;;;4995498;28;98656;-79
2023/08/19 03:25:16;;;;;;;30.48;20.60;;;;;;;;;;4992286;28;99557;-79
2023/08/19 03:27:42;;;;;;;30.85;21.30;;;;;;;;;;4987488;28;100952;-79
2023/08/19 03:30:09;;;;;;;30.13;19.48;;;;;;;;;;4992925;28;98901;-78
2023/08/19 03:32:41;;;;;;;28.23;22.45;;;;;;;;;;4997856;28;99247;-76
2023/08/19 03:35:08;;;;;;;37.90;22.02;;;;;;;;;;4990197;28;101361;-79
2023/08/19 03:37:34;;;;;;;34.08;21.25;;;;;;;;;;4993175;28;98563;-79
2023/08/19 03:40:01;;;;;;;30.58;19.35;;;;;;;;;;4987281;28;103543;-79
2023/08/19 03:42:31;;;;;;;28.25;20.05;;;;;;;;;;4990207;28;99401;-76
2023/08/19 03:44:58;;;;;;;28.48;20.67;;;;;;;;;;4995317;28;100773;-77
2023/08/19 03:47:24;;;;;;;27.50;19.88;;;;;;;;;;4998818;28;100333;-77
2023/08/19 03:49:51;;;;;;;25.20;20.13;;;;;;;;;;4984839;28;97866;-76
2023/08/19 03:52:17;;;;;;;27.50;20.73;;;;;;;;;;4994530;28;100025;-76
2023/08/19 03:54:44;;;;;;;26.45;18.92;;;;;;;;;;4982760;28;100988;-75
2023/08/19 03:57:10;;;;;;;33.33;20.45;;;;;;;;;;5005951;28;99328;-76
2023/08/19 03:59:37;;;;;;;21.23;16.65;;;;;;;;;;4986369;28;99493;-76
2023/08/19 04:02:03;;;;;;;24.67;19.75;;;;;;;;;;4995569;28;98623;-76
2023/08/19 04:04:29;;;;;;;30.05;19.13;;;;;;;;;;4998045;28;99224;-77
2023/08/19 04:06:56;;;;;;;29.58;20.08;;;;;;;;;;4994464;28;99309;-78
2023/08/19 04:09:22;;;;;;;27.92;19.80;;;;;;;;;;4989868;28;98650;-77
2023/08/19 04:11:51;;;;;;;29.25;19.20;;;;;;;;;;4989375;28;99263;-77
2023/08/19 04:14:17;;;;;;;23.75;20.23;;;;;;;;;;4996384;28;98776;-78
2023/08/19 04:16:44;;;;;;;29.42;19.98;;;;;;;;;;4986296;28;98628;-77
2023/08/19 04:19:10;;;;;;;24.70;19.13;;;;;;;;;;5002172;28;100923;-78
2023/08/19 04:21:37;;;;;;;24.20;18.73;;;;;;;;;;4996803;28;99680;-79
2023/08/19 04:24:03;;;;;;;25.02;17.77;;;;;;;;;;4988176;28;101030;-78
2023/08/19 04:26:30;;;;;;;26.25;19.83;;;;;;;;;;4986531;28;101051;-79
2023/08/19 04:28:56;;;;;;;25.30;19.02;;;;;;;;;;4989497;28;98520;-76
2023/08/19 04:31:23;;;;;;;24.00;18.25;;;;;;;;;;4997944;28;100202;-84
2023/08/19 04:33:49;;;;;;;27.90;18.67;;;;;;;;;;5001156;28;99524;-83
2023/08/19 04:36:16;;;;;;;27.73;19.92;;;;;;;;;;4986953;28;98741;-81
2023/08/19 04:38:42;;;;;;;26.90;18.35;;;;;;;;;;4992706;28;99607;-82
2023/08/19 04:41:09;;;;;;;25.33;18.95;;;;;;;;;;4991612;28;99548;-83
2023/08/19 04:43:35;;;;;;;33.30;19.02;;;;;;;;;;4988851;28;99228;-83
2023/08/19 04:46:02;;;;;;;30.20;18.65;;;;;;;;;;4993442;28;101595;-83
2023/08/19 04:48:29;;;;;;;24.88;19.27;;;;;;;;;;4985562;28;98504;-81
2023/08/19 04:50:56;;;;;;;26.60;18.48;;;;;;;;;;4988374;28;99240;-84
2023/08/19 04:53:22;;;;;;;27.80;18.95;;;;;;;;;;4992391;28;99530;-82
2023/08/19 04:55:56;;;;;;;27.73;18.08;;;;;;;;;;4994750;28;98672;-79
2023/08/19 04:58:23;;;;;;;25.05;19.35;;;;;;;;;;4991439;28;99272;-80
2023/08/19 05:00:49;;;;;;;23.95;20.10;;;;;;;;;;4985211;28;99535;-80
2023/08/19 05:03:16;;;;;;;29.17;18.58;;;;;;;;;;4992381;28;98132;-81
2023/08/19 05:05:42;;;;;;;27.80;19.15;;;;;;;;;;4987267;28;99429;-81
2023/08/19 05:08:08;;;;;;;32.45;18.92;;;;;;;;;;4988756;28;98599;-81
2023/08/19 05:10:35;;;;;;;23.10;17.90;;;;;;;;;;4986767;28;99435;-81
2023/08/19 05:13:01;;;;;;;27.00;18.70;;;;;;;;;;4994585;28;99475;-88
2023/08/19 05:15:28;;;;;;;26.33;19.90;;;;;;;;;;4986344;28;98553;-82
2023/08/19 05:17:54;;;;;;;26.75;18.95;;;;;;;;;;4991970;28;99233;-84
2023/08/19 05:20:21;;;;;;;28.17;19.13;;;;;;;;;;4989789;28;99425;-85
2023/08/19 05:22:47;;;;;;;26.08;17.70;;;;;;;;;;5007566;28;98773;-83
2023/08/19 05:25:14;;;;;;;22.48;17.85;;;;;;;;;;4998940;28;100072;-83
2023/08/19 05:27:40;;;;;;;25.67;19.48;;;;;;;;;;4991095;28;98080;-77
2023/08/19 05:30:07;;;;;;;33.13;19.00;;;;;;;;;;4989191;28;98513;-77
2023/08/19 05:32:34;;;;;;;29.95;18.38;;;;;;;;;;4986198;28;99808;-76
2023/08/19 05:35:00;;;;;;;22.40;15.88;;;;;;;;;;4989491;28;99433;-78
2023/08/19 05:37:26;;;;;;;28.17;17.75;;;;;;;;;;5000473;28;99958;-77
2023/08/19 05:39:53;;;;;;;28.23;17.98;;;;;;;;;;4988928;28;102797;-77
2023/08/19 05:42:19;;;;;;;31.75;17.73;;;;;;;;;;4998860;28;98688;-79
2023/08/19 05:44:45;;;;;;;32.60;17.80;;;;;;;;;;4989350;28;99235;-76
2023/08/19 05:47:12;;;;;;;26.35;16.83;;;;;;;;;;4986225;28;99682;-76
2023/08/19 05:49:38;;;;;;;24.65;15.90;;;;;;;;;;4992455;28;99364;-76
2023/08/19 05:52:05;;;;;;;22.90;15.25;;;;;;;;;;4989181;28;98782;-76
2023/08/19 05:54:31;;;;;;;29.60;17.23;;;;;;;;;;4988895;28;98707;-76
2023/08/19 05:56:58;;;;;;;22.88;15.68;;;;;;;;;;4979919;28;99173;-76
2023/08/19 05:59:24;;;;;;;19.13;14.52;;;;;;;;;;4982671;28;100237;-76
2023/08/19 06:01:50;;;;;;;24.88;15.85;;;;;;;;;;4984896;28;98655;-76
2023/08/19 06:04:19;;;;;;;21.83;14.82;;;;;;;;;;4992579;28;99683;-76
2023/08/19 06:06:45;;;;;;;22.40;14.13;;;;;;;;;;5004981;28;99356;-76
2023/08/19 06:09:11;;;;;;;21.77;13.25;;;;;;;;;;4988204;28;99283;-76
2023/08/19 06:11:46;;;;;;;17.13;12.63;;;;;;;;;;4986724;28;99507;-76
2023/08/19 06:14:12;;;;;;;18.27;12.55;;;;;;;;;;4991652;28;98385;-76
2023/08/19 06:16:40;;;;;;;16.40;11.63;;;;;;;;;;4989671;28;99184;-76
2023/08/19 06:19:06;;;;;;;17.23;11.43;;;;;;;;;;4988601;28;98753;-79
2023/08/19 06:21:33;;;;;;;17.05;12.77;;;;;;;;;;4989903;28;98744;-79
2023/08/19 06:23:59;;;;;;;17.77;11.55;;;;;;;;;;4992304;28;99195;-78
2023/08/19 06:26:26;;;;;;;15.30;10.82;;;;;;;;;;4983752;28;99464;-77
2023/08/19 06:28:52;;;;;;;17.23;10.93;;;;;;;;;;4989662;28;98630;-78
2023/08/19 06:31:19;;;;;;;20.95;10.90;;;;;;;;;;4992841;28;99541;-79
2023/08/19 06:33:47;;;;;;;16.45;10.90;;;;;;;;;;4993734;28;98582;-79
2023/08/19 06:36:16;;;;;;;21.83;11.05;;;;;;;;;;4991116;28;99296;-78
2023/08/19 06:38:46;;;;;;;17.07;11.03;;;;;;;;;;4995468;28;99745;-78
2023/08/19 06:41:13;;;;;;;17.67;10.50;;;;;;;;;;5004040;28;97752;-78
2023/08/19 06:43:40;;;;;;;17.23;10.65;;;;;;;;;;4991820;28;98546;-78
2023/08/19 06:46:07;;;;;;;21.17;10.63;;;;;;;;;;5002021;28;99491;-78
2023/08/19 06:48:34;;;;;;;20.92;9.52;;;;;;;;;;4988792;28;99589;-78
2023/08/19 06:51:01;;;;;;;16.65;9.50;;;;;;;;;;5000585;28;99942;-78
2023/08/19 06:53:28;;;;;;;14.13;8.90;;;;;;;;;;4987620;28;98678;-77
2023/08/19 06:56:00;;;;;;;18.23;9.35;;;;;;;;;;4989284;28;99353;-77
2023/08/19 06:58:28;;;;;;;14.00;8.02;;;;;;;;;;4996388;28;99413;-77
2023/08/19 07:00:59;;;;;;;12.43;8.73;;;;;;;;;;4989776;28;98908;-77
2023/08/19 07:03:27;;;;;;;16.50;9.82;;;;;;;;;;4990368;28;99696;-77
2023/08/19 07:05:55;;;;;;;31.40;11.15;;;;;;;;;;4993573;28;99149;-77
2023/08/19 07:08:22;;;;;;;22.42;9.23;;;;;;;;;;4992200;28;98560;-77
2023/08/19 07:10:48;;;;;;;12.35;8.68;;;;;;;;;;4997424;28;99257;-77
2023/08/19 07:13:15;;;;;;;15.73;8.90;;;;;;;;;;4991776;28;100349;-77
2023/08/19 07:15:43;;;;;;;14.18;9.48;;;;;;;;;;4990162;28;99876;-77
2023/08/19 07:18:13;;;;;;;18.05;9.20;;;;;;;;;;4987721;28;98653;-77
2023/08/19 07:20:39;;;;;;;15.07;9.30;;;;;;;;;;4992354;28;98596;-77
2023/08/19 07:23:07;;;;;;;21.42;10.00;;;;;;;;;;5001853;28;99491;-78
2023/08/19 07:25:33;;;;;;;12.25;9.85;;;;;;;;;;4984603;28;99779;-77
2023/08/19 07:28:02;;;;;;;16.85;9.57;;;;;;;;;;4985237;28;98579;-77
2023/08/19 07:30:29;;;;;;;15.35;10.82;;;;;;;;;;4991855;28;99209;-77
2023/08/19 07:32:55;;;;;;;14.73;10.35;;;;;;;;;;4992686;28;99431;-78
2023/08/19 07:35:23;;;;;;;14.30;10.55;;;;;;;;;;4986729;28;98659;-77
2023/08/19 07:37:49;;;;;;;18.02;10.57;;;;;;;;;;4987738;28;100630;-77
2023/08/19 07:40:15;;;;;;;22.27;11.00;;;;;;;;;;4994594;28;98525;-77
2023/08/19 07:42:42;;;;;;;17.35;10.63;;;;;;;;;;4990212;28;99182;-77
2023/08/19 07:45:09;;;;;;;17.70;10.55;;;;;;;;;;4988544;28;99491;-77
2023/08/19 07:47:35;;;;;;;16.70;9.75;;;;;;;;;;4989271;28;100394;-77
2023/08/19 07:50:02;;;;;;;14.98;9.57;;;;;;;;;;4985355;28;99277;-77
2023/08/19 07:52:28;;;;;;;15.95;10.10;;;;;;;;;;4986249;28;99334;-77
2023/08/19 07:54:54;;;;;;;15.80;10.18;;;;;;;;;;4989434;28;98273;-77
2023/08/19 07:57:21;;;;;;;15.82;10.75;;;;;;;;;;4997533;28;99606;-77
2023/08/19 07:59:47;;;;;;;16.65;9.85;;;;;;;;;;4985570;28;100225;-77
2023/08/19 08:02:14;;;;;;;14.27;10.73;;;;;;;;;;4995076;28;99472;-77
2023/08/19 08:04:40;;;;;;;21.40;10.23;;;;;;;;;;4991414;28;99740;-77
2023/08/19 08:07:07;;;;;;;21.23;11.05;;;;;;;;;;4997057;28;98883;-77
2023/08/19 08:09:33;;;;;;;14.80;9.07;;;;;;;;;;4992645;28;99170;-78
2023/08/19 08:12:00;;;;;;;22.00;10.10;;;;;;;;;;4984972;28;102533;-77
2023/08/19 08:14:26;;;;;;;19.30;10.32;;;;;;;;;;4996330;28;98686;-79
2023/08/19 08:16:56;;;;;;;19.17;10.00;;;;;;;;;;4992057;28;99273;-79
2023/08/19 08:19:25;;;;;;;11.35;9.35;;;;;;;;;;4989116;28;97792;-79
2023/08/19 08:21:52;;;;;;;16.15;9.07;;;;;;;;;;4990391;28;98788;-79
2023/08/19 08:24:19;;;;;;;16.33;9.23;;;;;;;;;;4992215;28;102550;-79
2023/08/19 08:26:46;;;;;;;17.27;9.88;;;;;;;;;;4990126;28;99355;-79
2023/08/19 08:29:12;;;;;;;13.02;9.07;;;;;;;;;;4988516;28;99883;-79
2023/08/19 08:31:39;;;;;;;21.63;9.73;;;;;;;;;;4998822;28;99481;-79
2023/08/19 08:34:06;;;;;;;18.40;9.80;;;;;;;;;;4988060;28;98547;-79
2023/08/19 08:36:32;;;;;;;16.02;9.82;;;;;;;;;;5001019;28;99106;-79
2023/08/19 08:38:59;;;;;;;17.35;9.35;;;;;;;;;;4990743;28;100408;-79
2023/08/19 08:41:26;;;;;;;17.60;9.45;;;;;;;;;;4995801;28;99217;-79
2023/08/19 08:43:54;;;;;;;16.13;9.38;;;;;;;;;;5002291;28;98778;-79
2023/08/19 08:46:22;;;;;;;17.20;10.02;;;;;;;;;;4989118;28;100712;-79
2023/08/19 08:48:50;;;;;;;17.83;7.97;;;;;;;;;;4999123;28;100080;-79
2023/08/19 08:51:18;;;;;;;15.50;8.32;;;;;;;;;;4989475;28;100216;-80
2023/08/19 08:53:45;;;;;;;13.77;8.93;;;;;;;;;;4996114;28;98951;-79
2023/08/19 08:56:13;;;;;;;13.45;8.90;;;;;;;;;;4990090;28;100240;-79
2023/08/19 08:58:39;;;;;;;14.65;8.90;;;;;;;;;;4995345;28;99607;-80
2023/08/19 09:01:05;;;;;;;13.38;8.73;;;;;;;;;;4994000;28;98581;-79
2023/08/19 09:03:36;;;;;;;14.98;9.32;;;;;;;;;;4990916;28;100607;-79
2023/08/19 09:06:15;;;;;;;17.33;9.30;;;;;;;;;;4995803;28;98766;-79
2023/08/19 09:09:02;;;;;;;16.08;9.30;;;;;;;;;;5003553;28;99246;-80
2023/08/19 09:11:33;;;;;;;18.42;9.32;;;;;;;;;;4998698;28;99738;-79
2023/08/19 09:14:05;;;;;;;16.95;9.25;;;;;;;;;;4992873;28;99063;-79
2023/08/19 09:16:31;;;;;;;15.25;9.45;;;;;;;;;;5005135;28;99308;-79
2023/08/19 09:18:58;;;;;;;16.33;9.07;;;;;;;;;;4998618;28;100466;-79
2023/08/19 09:21:25;;;;;;;23.42;10.50;;;;;;;;;;4997438;28;98463;-79
2023/08/19 09:23:51;;;;;;;12.55;10.13;;;;;;;;;;4995409;28;99043;-79
2023/08/19 09:26:18;;;;;;;15.07;9.57;;;;;;;;;;4989420;28;98605;-79
2023/08/19 09:28:44;;;;;;;19.33;11.57;;;;;;;;;;4994702;28;99413;-79
2023/08/19 09:31:21;;;;;;;19.23;10.48;;;;;;;;;;4988243;28;99494;-79
2023/08/19 09:33:47;;;;;;;20.60;10.85;;;;;;;;;;4997607;28;97903;-79
2023/08/19 09:36:14;;;;;;;20.17;11.48;;;;;;;;;;4993380;28;98623;-78
2023/08/19 09:38:40;;;;;;;23.25;12.07;;;;;;;;;;4987095;28;99441;-78
2023/08/19 09:41:07;;;;;;;14.82;11.27;;;;;;;;;;4981243;28;99341;-76
2023/08/19 09:43:37;;;;;;;21.45;12.85;;;;;;;;;;5007648;28;100995;-77
2023/08/19 09:46:04;;;;;;;17.40;12.50;;;;;;;;;;5005619;28;99500;-77
2023/08/19 09:48:30;;;;;;;20.13;11.48;;;;;;;;;;4992789;28;99675;-77
2023/08/19 09:50:56;;;;;;;23.40;12.85;;;;;;;;;;4992562;28;100397;-76
2023/08/19 09:53:26;;;;;;;34.53;13.50;;;;;;;;;;4991932;28;98608;-76
2023/08/19 09:55:53;;;;;;;20.30;13.63;;;;;;;;;;5001656;28;98468;-77
2023/08/19 09:58:19;;;;;;;21.90;13.35;;;;;;;;;;4991873;28;102092;-78
2023/08/19 10:00:46;;;;;;;21.85;13.85;;;;;;;;;;4995296;28;98824;-76
2023/08/19 10:03:13;;;;;;;23.13;14.63;;;;;;;;;;5001776;28;99722;-77
2023/08/19 10:05:40;;;;;;;23.65;13.90;;;;;;;;;;4996325;28;103001;-77
2023/08/19 10:08:07;;;;;;;18.17;14.20;;;;;;;;;;5005774;28;98450;-76
2023/08/19 10:10:36;;;;;;;28.13;16.35;;;;;;;;;;5000077;28;99489;-77
2023/08/19 10:13:03;;;;;;;26.95;14.90;;;;;;;;;;4997019;28;99239;-77
2023/08/19 10:15:32;;;;;;;18.90;15.57;;;;;;;;;;4996072;28;100258;-76
2023/08/19 10:18:01;;;;;;;26.25;16.73;;;;;;;;;;4988329;28;99574;-76
2023/08/19 10:20:29;;;;;;;24.07;14.83;;;;;;;;;;4991042;28;98591;-77
2023/08/19 10:22:57;;;;;;;26.30;14.93;;;;;;;;;;4989859;28;100026;-79
2023/08/19 10:25:24;;;;;;;20.75;14.70;;;;;;;;;;4991673;28;98869;-79
2023/08/19 10:27:50;;;;;;;20.17;13.70;;;;;;;;;;5000232;28;98621;-79
2023/08/19 10:30:23;;;;;;;20.77;12.93;;;;;;;;;;4996181;28;100361;-79
2023/08/19 10:32:49;;;;;;;18.50;13.40;;;;;;;;;;4993823;28;98666;-79
2023/08/19 10:35:16;;;;;;;15.35;10.82;;;;;;;;;;4991693;28;98862;-79
2023/08/19 10:37:45;;;;;;;12.50;10.07;;;;;;;;;;4997990;28;99476;-79
2023/08/19 10:40:12;;;;;;;21.13;9.93;;;;;;;;;;4987605;28;98569;-79
2023/08/19 10:42:39;;;;;;;13.85;10.27;;;;;;;;;;4998823;28;99326;-80
2023/08/19 10:45:18;;;;;;;14.32;9.80;;;;;;;;;;4989431;28;98613;-80
2023/08/19 10:47:45;;;;;;;12.20;8.67;;;;;;;;;;4997108;28;97871;-79
2023/08/19 10:50:12;;;;;;;15.07;8.27;;;;;;;;;;4989244;28;99274;-79
2023/08/19 10:52:57;;;;;;;10.63;6.47;;;;;;;;;;4989140;28;98729;-79
2023/08/19 10:55:23;;;;;;;5.32;4.82;;;;;;;;;;4985430;28;99740;-78
2023/08/19 10:57:50;;;;;;;7.50;4.50;;;;;;;;;;4996297;28;99606;-79
2023/08/19 11:00:21;;;;;;;4.70;4.15;;;;;;;;;;4990455;28;98628;-79
2023/08/19 11:02:48;;;;;;;5.45;4.40;;;;;;;;;;4994823;28;99046;-78
2023/08/19 11:05:23;;;;;;;7.30;4.32;;;;;;;;;;4989359;28;99535;-79
2023/08/19 11:07:50;;;;;;;7.55;4.80;;;;;;;;;;4990699;28;98626;-79
2023/08/19 11:10:16;;;;;;;9.27;4.50;;;;;;;;;;4997234;28;99126;-79
2023/08/19 11:12:48;;;;;;;8.23;4.65;;;;;;;;;;5004039;28;98783;-79
2023/08/19 11:15:22;;;;;;;6.65;4.60;;;;;;;;;;4995380;28;98623;-79
2023/08/19 11:17:48;;;;;;;5.75;4.95;;;;;;;;;;4993559;28;99485;-79
2023/08/19 11:20:15;;;;;;;6.03;4.03;;;;;;;;;;4991171;28;99291;-79
2023/08/19 11:22:46;;;;;;;7.70;4.22;;;;;;;;;;4989225;28;99879;-79
2023/08/19 11:25:14;;;;;;;6.35;4.20;;;;;;;;;;4994538;28;99533;-79
2023/08/19 11:27:40;;;;;;;6.28;3.90;;;;;;;;;;5004178;28;98957;-79
2023/08/19 11:30:10;;;;;;;7.45;4.85;;;;;;;;;;4991849;28;99639;-79
2023/08/19 11:32:38;;;;;;;9.38;4.30;;;;;;;;;;4992649;28;99498;-78
2023/08/19 11:35:05;;;;;;;7.43;4.38;;;;;;;;;;4994581;28;98592;-79
2023/08/19 11:37:31;;;;;;;5.47;4.30;;;;;;;;;;4990400;28;98774;-79
2023/08/19 11:39:58;;;;;;;7.95;4.43;;;;;;;;;;4993025;28;98517;-80
2023/08/19 11:42:27;;;;;;;7.07;4.72;;;;;;;;;;4987895;28;99253;-79
2023/08/19 11:44:55;;;;;;;7.45;5.47;;;;;;;;;;4998427;28;100214;-79
2023/08/19 11:47:23;;;;;;;6.50;4.43;;;;;;;;;;4990438;28;98647;-78
2023/08/19 11:49:50;;;;;;;8.82;5.32;;;;;;;;;;4993872;28;98667;-78
2023/08/19 11:52:20;;;;;;;7.15;4.70;;;;;;;;;;4989441;28;99497;-78
2023/08/19 11:54:46;;;;;;;;;;;;;;;;;;4990795;28;98607;-78
2023/08/19 11:57:15;;;;;;;6.53;5.15;;;;;;;;;;4994320;28;129448;-78
2023/08/19 11:59:42;;;;;;;6.73;4.97;;;;;;;;;;4992304;28;98626;-78
2023/08/19 12:02:09;;;;;;;9.75;5.45;;;;;;;;;;4994007;28;99123;-78
2023/08/19 12:04:35;;;;;;;7.85;4.90;;;;;;;;;;4985062;28;99502;-78
2023/08/19 12:07:08;;;;;;;8.43;4.88;;;;;;;;;;4997893;28;101026;-78
2023/08/19 12:09:39;;;;;;;7.90;5.22;;;;;;;;;;4987723;28;99514;-78
2023/08/19 12:12:09;;;;;;;12.23;5.15;;;;;;;;;;4987731;28;98916;-78
2023/08/19 12:14:37;;;;;;;12.68;6.13;;;;;;;;;;4992824;28;98991;-78
2023/08/19 12:17:06;;;;;;;8.43;5.63;;;;;;;;;;4999085;28;99357;-78
2023/08/19 12:19:33;;;;;;;7.82;5.15;;;;;;;;;;4992645;28;98988;-77
2023/08/19 12:21:59;;;;;;;12.10;6.57;;;;;;;;;;4990556;28;99145;-77
2023/08/19 12:24:26;;;;;;;9.18;6.65;;;;;;;;;;4996546;28;100022;-78
2023/08/19 12:26:54;;;;;;;11.40;7.05;;;;;;;;;;4989676;28;98135;-77
2023/08/19 12:29:21;;;;;;;10.88;6.97;;;;;;;;;;5000137;28;98737;-78
2023/08/19 12:31:47;;;;;;;18.10;7.20;;;;;;;;;;4998760;28;99282;-79
2023/08/19 12:34:15;;;;;;;11.25;7.78;;;;;;;;;;4988433;28;99643;-78
2023/08/19 12:36:41;;;;;;;13.40;7.30;;;;;;;;;;4991219;28;100001;-78
2023/08/19 12:39:08;;;;;;;12.23;7.55;;;;;;;;;;4993015;28;101039;-78
2023/08/19 12:41:34;;;;;;;16.15;8.25;;;;;;;;;;4992300;28;99663;-78
2023/08/19 12:44:01;;;;;;;11.93;7.57;;;;;;;;;;5008234;28;99855;-76
2023/08/19 12:46:32;;;;;;;10.40;6.07;;;;;;;;;;5001310;28;98891;-76
2023/08/19 12:48:58;;;;;;;12.32;5.60;;;;;;;;;;4988837;28;99536;-75
2023/08/19 12:51:25;;;;;;;14.50;4.63;;;;;;;;;;4988585;28;99520;-76
2023/08/19 12:53:51;;;;;;;13.85;4.47;;;;;;;;;;4987388;28;99490;-75
2023/08/19 12:56:18;;;;;;;7.00;2.67;;;;;;;;;;4987143;28;99161;-75
2023/08/19 12:58:45;;;;;;;4.35;1.50;;;;;;;;;;4987770;28;100281;-75
2023/08/19 13:01:11;;;;;;;5.88;1.42;;;;;;;;;;4996972;28;98586;-75
2023/08/19 13:03:38;;;;;;;5.55;1.30;;;;;;;;;;4988543;28;99492;-75
2023/08/19 13:06:04;;;;;;;4.90;1.30;;;;;;;;;;4990221;28;98515;-75
2023/08/19 13:08:31;;;;;;;3.70;1.10;;;;;;;;;;4992720;28;99143;-76
2023/08/19 13:10:57;;;;;;;4.03;1.10;;;;;;;;;;4990345;28;99569;-75
2023/08/19 13:13:23;;;;;;;9.38;1.40;;;;;;;;;;4988251;28;98584;-76
2023/08/19 13:15:50;;;;;;;5.55;1.00;;;;;;;;;;4988993;28;99135;-75
2023/08/19 13:18:18;;;;;;;5.68;1.15;;;;;;;;;;4989569;28;98776;-76
2023/08/19 13:20:45;;;;;;;3.22;1.02;;;;;;;;;;4984718;28;98658;-76
2023/08/19 13:23:11;;;;;;;3.92;0.90;;;;;;;;;;4994346;28;99207;-76
2023/08/19 13:25:38;;;;;;;6.15;1.08;;;;;;;;;;4991289;28;98592;-76
2023/08/19 13:28:04;;;;;;;4.18;1.00;;;;;;;;;;4982583;28;99276;-75
2023/08/19 13:30:31;;;;;;;7.47;1.50;;;;;;;;;;4991633;28;99876;-75
2023/08/19 13:32:57;;;;;;;5.47;1.40;;;;;;;;;;4986494;28;98694;-75
2023/08/19 13:35:24;;;;;;;5.05;1.50;;;;;;;;;;4993573;28;99566;-76
2023/08/19 13:37:50;;;;;;;13.93;1.80;;;;;;;;;;4993958;28;99578;-76
2023/08/19 13:40:17;;;;;;;9.02;1.50;;;;;;;;;;4982503;28;98118;-75
2023/08/19 13:42:43;;;;;;;10.00;1.77;;;;;;;;;;4993785;28;99203;-75
2023/08/19 13:45:09;;;;;;;14.48;1.67;;;;;;;;;;4988910;28;99804;-75
2023/08/19 13:47:36;;;;;;;7.22;1.50;;;;;;;;;;4997453;28;99597;-76
2023/08/19 13:50:05;;;;;;;6.55;1.48;;;;;;;;;;4984341;28;100955;-76
2023/08/19 13:52:36;;;;;;;11.20;1.70;;;;;;;;;;4990943;28;100386;-75
2023/08/19 13:55:03;;;;;;;10.88;2.15;;;;;;;;;;4996602;28;99217;-75
2023/08/19 13:57:29;;;;;;;6.78;1.65;;;;;;;;;;4988905;28;99474;-75
2023/08/19 13:59:56;;;;;;;4.97;1.50;;;;;;;;;;4984507;28;99177;-75
2023/08/19 14:02:23;;;;;;;10.40;2.05;;;;;;;;;;4982430;28;100089;-75
2023/08/19 14:04:49;;;;;;;5.38;1.45;;;;;;;;;;4988253;28;98882;-75
2023/08/19 14:07:16;;;;;;;10.77;2.50;;;;;;;;;;4990176;28;99649;-75
2023/08/19 14:09:42;;;;;;;10.82;2.15;;;;;;;;;;4987310;28;99753;-75
2023/08/19 14:12:08;;;;;;;8.18;1.73;;;;;;;;;;4987696;28;99253;-75
2023/08/19 14:14:36;;;;;;;2.80;1.70;;;;;;;;;;4989109;28;99997;-75
2023/08/19 14:17:05;;;;;;;7.38;2.00;;;;;;;;;;4989015;28;99594;-75
2023/08/19 14:19:31;;;;;;;10.23;2.00;;;;;;;;;;4985091;28;98770;-76
2023/08/19 14:21:58;;;;;;;9.10;2.35;;;;;;;;;;4978246;28;99514;-75